createdAt,value
2018-08-12T00:02:09.597Z,16.97
2018-08-12T00:04:39.652Z,16.95
2018-08-12T00:10:36.426Z,16.28
2018-08-12T00:13:22.470Z,16.43
2018-08-12T00:15:52.651Z,16.76
2018-08-12T00:18:22.600Z,16.85
2018-08-12T00:20:52.645Z,16.65
2018-08-12T00:23:34.458Z,16.54
2018-08-12T00:26:05.624Z,16.17
2018-08-12T00:35:20.523Z,15.72
2018-08-12T00:37:50.577Z,15.90
2018-08-12T00:40:22.902Z,15.76
2018-08-12T00:49:11.550Z,15.41
2018-08-12T00:55:07.281Z,15.16
2018-08-12T01:01:11.595Z,15.48
2018-08-12T01:03:41.660Z,15.43
2018-08-12T01:06:11.800Z,15.61
2018-08-12T01:08:59.876Z,15.80
2018-08-12T01:11:30.547Z,16.04
2018-08-12T01:14:00.802Z,15.63
2018-08-12T01:16:31.034Z,15.19
2018-08-12T01:19:01.416Z,14.60
2018-08-12T01:21:31.721Z,15.01
2018-08-12T01:24:02.279Z,14.81
2018-08-12T01:26:57.643Z,14.67
2018-08-12T01:29:27.715Z,14.91
2018-08-12T01:31:57.892Z,14.57
2018-08-12T01:34:28.458Z,14.45
2018-08-12T01:36:59.929Z,14.85
2018-08-12T01:39:30.468Z,14.68
2018-08-12T01:42:16.459Z,14.50
2018-08-12T01:45:06.872Z,14.39
2018-08-12T01:47:37.080Z,14.84
2018-08-12T01:56:27.247Z,14.52
2018-08-12T01:59:16.664Z,14.68
2018-08-12T02:01:49.594Z,15.05
2018-08-12T02:04:21.011Z,15.38
2018-08-12T02:06:51.394Z,15.18
2018-08-12T02:09:22.813Z,14.68
2018-08-12T02:11:56.510Z,14.49
2018-08-12T02:14:30.111Z,14.22
2018-08-12T02:17:18.284Z,14.07
2018-08-12T02:19:48.460Z,14.22
2018-08-12T02:22:18.807Z,14.20
2018-08-12T02:24:52.606Z,13.74
2018-08-12T02:30:34.020Z,14.18
2018-08-12T02:33:04.608Z,14.39
2018-08-12T02:35:34.595Z,14.72
2018-08-12T02:41:40.368Z,14.43
2018-08-12T02:44:10.850Z,14.84
2018-08-12T02:46:40.979Z,14.65
2018-08-12T02:49:10.907Z,14.14
2018-08-12T02:52:00.551Z,13.50
2018-08-12T02:57:48.524Z,13.51
2018-08-12T03:03:29.464Z,13.63
2018-08-12T03:05:59.567Z,13.29
2018-08-12T03:08:29.845Z,13.09
2018-08-12T03:10:59.723Z,13.51
2018-08-12T03:13:29.713Z,13.46
2018-08-12T03:16:00.199Z,13.59
2018-08-12T03:18:31.152Z,13.99
2018-08-12T03:21:09.303Z,14.13
2018-08-12T03:23:39.214Z,14.38
2018-08-12T03:26:09.815Z,14.30
2018-08-12T03:28:39.719Z,13.67
2018-08-12T03:31:09.544Z,13.41
2018-08-12T03:33:47.916Z,13.01
2018-08-12T03:36:19.286Z,13.21
2018-08-12T03:38:50.142Z,13.40
2018-08-12T03:41:20.143Z,13.69
2018-08-12T03:46:50.106Z,13.55
2018-08-12T03:49:36.778Z,13.63
2018-08-12T03:52:07.090Z,13.68
2018-08-12T03:54:37.308Z,13.95
2018-08-12T04:00:27.931Z,13.51
2018-08-12T04:02:58.050Z,13.64
2018-08-12T04:08:32.589Z,12.59
2018-08-12T04:14:03.449Z,12.68
2018-08-12T04:17:24.516Z,12.85
2018-08-12T04:19:54.763Z,13.11
2018-08-12T04:22:53.040Z,12.91
2018-08-12T04:28:14.408Z,12.30
2018-08-12T04:34:03.893Z,12.59
2018-08-12T04:36:33.850Z,12.66
2018-08-12T04:39:03.818Z,12.95
2018-08-12T04:41:33.923Z,13.00
2018-08-12T04:44:13.008Z,12.76
2018-08-12T04:47:08.927Z,12.78
2018-08-12T04:52:49.690Z,12.85
2018-08-12T04:55:19.576Z,12.76
2018-08-12T04:57:49.717Z,12.69
2018-08-12T05:00:19.498Z,12.90
2018-08-12T05:02:50.000Z,12.98
2018-08-12T05:05:20.675Z,12.89
2018-08-12T05:07:51.183Z,13.00
2018-08-12T05:10:23.901Z,13.27
2018-08-12T05:12:53.758Z,12.95
2018-08-12T05:15:23.867Z,13.00
2018-08-12T05:17:54.156Z,12.99
2018-08-12T05:20:24.111Z,12.99
2018-08-12T05:22:58.982Z,13.07
2018-08-12T05:25:36.598Z,13.17
2018-08-12T05:28:06.856Z,13.13
2018-08-12T05:30:36.832Z,13.11
2018-08-12T05:33:08.169Z,13.20
2018-08-12T05:35:37.971Z,13.19
2018-08-12T05:38:08.435Z,13.24
2018-08-12T05:43:33.214Z,13.68
2018-08-12T05:46:04.449Z,13.79
2018-08-12T05:48:35.344Z,13.86
2018-08-12T05:51:06.622Z,13.97
2018-08-12T05:53:36.780Z,13.94
2018-08-12T05:56:07.023Z,14.00
2018-08-12T05:58:36.999Z,14.00
2018-08-12T06:04:20.269Z,14.21
2018-08-12T06:07:06.375Z,14.25
2018-08-12T06:15:48.175Z,14.44
2018-08-12T06:18:21.338Z,14.63
2018-08-12T06:20:51.299Z,14.77
2018-08-12T06:23:21.371Z,14.79
2018-08-12T06:25:51.932Z,15.00
2018-08-12T06:28:22.836Z,15.20
2018-08-12T06:30:52.994Z,15.23
2018-08-12T06:33:23.021Z,15.06
2018-08-12T06:35:53.369Z,15.33
2018-08-12T06:38:23.660Z,15.38
2018-08-12T06:40:54.134Z,15.49
2018-08-12T06:43:24.574Z,15.79
2018-08-12T06:45:54.817Z,16.03
2018-08-12T06:48:25.144Z,15.90
2018-08-12T06:50:55.731Z,16.10
2018-08-12T06:53:26.661Z,16.22
2018-08-12T06:55:56.943Z,16.47
2018-08-12T06:58:27.139Z,16.24
2018-08-12T07:00:57.459Z,16.51
2018-08-12T07:06:27.831Z,16.90
2018-08-12T07:08:58.523Z,16.83
2018-08-12T07:11:29.001Z,16.86
2018-08-12T07:13:59.640Z,16.74
2018-08-12T07:16:30.268Z,17.03
2018-08-12T07:19:00.543Z,17.17
2018-08-12T07:21:30.590Z,17.19
2018-08-12T07:24:04.759Z,17.13
2018-08-12T07:26:58.876Z,17.20
2018-08-12T08:25:58.997Z,19.12
2018-08-12T08:31:38.081Z,19.08
2018-08-12T08:37:19.407Z,19.54
2018-08-12T08:40:44.235Z,19.64
2018-08-12T08:43:14.733Z,19.99
2018-08-12T08:45:44.807Z,19.80
2018-08-12T08:48:16.471Z,20.00
2018-08-12T08:50:46.757Z,20.24
2018-08-12T08:53:29.866Z,20.38
2018-08-12T08:58:43.321Z,20.74
2018-08-12T09:01:13.225Z,20.77
2018-08-12T09:03:43.561Z,20.42
2018-08-12T09:06:13.504Z,20.80
2018-08-12T09:08:47.927Z,20.76
2018-08-12T09:14:32.155Z,21.02
2018-08-12T09:17:04.699Z,20.96
2018-08-12T09:19:34.951Z,21.21
2018-08-12T09:22:06.304Z,21.41
2018-08-12T09:24:37.094Z,21.61
2018-08-12T09:27:09.884Z,21.59
2018-08-12T09:29:40.803Z,21.69
2018-08-12T09:32:11.016Z,21.78
2018-08-12T09:34:41.167Z,21.90
2018-08-12T09:37:11.433Z,21.96
2018-08-12T09:39:41.294Z,21.94
2018-08-12T09:42:16.873Z,22.08
2018-08-12T09:44:47.778Z,22.18
2018-08-12T09:47:17.833Z,22.48
2018-08-12T09:49:47.966Z,22.49
2018-08-12T09:52:18.022Z,22.56
2018-08-12T09:54:48.308Z,22.69
2018-08-12T09:57:18.864Z,22.63
2018-08-12T09:59:48.735Z,22.54
2018-08-12T10:02:18.845Z,22.66
2018-08-12T10:04:48.946Z,22.84
2018-08-12T10:07:22.228Z,23.12
2018-08-12T10:09:52.287Z,22.95
2018-08-12T10:12:22.449Z,23.03
2018-08-12T10:14:52.280Z,23.22
2018-08-12T10:17:23.022Z,23.51
2018-08-12T10:19:53.276Z,23.37
2018-08-12T10:22:23.431Z,23.55
2018-08-12T10:24:53.670Z,23.65
2018-08-12T10:27:23.882Z,23.46
2018-08-12T10:30:07.576Z,23.72
2018-08-12T10:32:38.062Z,23.83
2018-08-12T10:35:10.183Z,23.81
2018-08-12T10:37:44.228Z,23.85
2018-08-12T10:40:36.160Z,23.88
2018-08-12T10:43:07.955Z,23.93
2018-08-12T10:45:38.428Z,24.26
2018-08-12T10:49:02.743Z,23.97
2018-08-12T10:51:32.854Z,24.34
2018-08-12T10:54:07.548Z,24.20
2018-08-12T10:56:47.864Z,24.43
2018-08-12T10:59:44.998Z,24.64
2018-08-12T11:02:15.472Z,24.47
2018-08-12T11:04:48.462Z,24.43
2018-08-12T11:10:41.478Z,24.93
2018-08-12T11:13:35.226Z,24.93
2018-08-12T11:16:06.107Z,25.16
2018-08-12T11:18:36.861Z,25.30
2018-08-12T11:21:07.624Z,25.54
2018-08-12T11:23:44.153Z,25.61
2018-08-12T11:26:15.400Z,25.24
2018-08-12T11:28:46.227Z,25.32
2018-08-12T11:31:16.562Z,25.43
2018-08-12T11:33:46.939Z,25.47
2018-08-12T11:36:17.086Z,25.41
2018-08-12T11:38:47.447Z,25.38
2018-08-12T11:41:17.581Z,25.57
2018-08-12T11:43:48.367Z,25.80
2018-08-12T11:46:18.384Z,26.02
2018-08-12T11:48:48.280Z,25.54
2018-08-12T11:51:18.132Z,25.61
2018-08-12T11:53:49.201Z,25.67
2018-08-12T11:56:19.385Z,25.93
2018-08-12T11:58:50.399Z,26.20
2018-08-12T12:01:20.254Z,26.25
2018-08-12T12:03:51.904Z,26.52
2018-08-12T12:06:22.442Z,26.56
2018-08-12T12:08:54.233Z,26.65
2018-08-12T12:11:42.777Z,26.36
2018-08-12T12:14:14.080Z,26.67
2018-08-12T12:19:54.960Z,26.77
2018-08-12T12:25:42.943Z,27.42
2018-08-12T12:28:25.062Z,27.10
2018-08-12T12:34:09.069Z,27.08
2018-08-12T12:36:44.189Z,27.39
2018-08-12T12:39:14.949Z,27.47
2018-08-12T12:41:48.629Z,27.53
2018-08-12T12:44:18.901Z,27.61
2018-08-12T12:46:48.886Z,27.75
2018-08-12T12:49:19.075Z,27.85
2018-08-12T12:51:49.561Z,27.73
2018-08-12T12:54:19.461Z,27.61
2018-08-12T12:56:49.720Z,27.52
2018-08-12T12:59:19.927Z,27.89
2018-08-12T13:01:50.369Z,27.88
2018-08-12T13:04:20.635Z,27.53
2018-08-12T13:06:51.742Z,27.69
2018-08-12T13:09:22.492Z,27.88
2018-08-12T13:11:52.588Z,28.11
2018-08-12T13:14:22.845Z,27.99
2018-08-12T13:16:53.049Z,28.04
2018-08-12T13:19:23.358Z,27.96
2018-08-12T13:21:53.441Z,27.74
2018-08-12T13:24:23.462Z,27.77
2018-08-12T13:26:53.622Z,27.99
2018-08-12T13:29:24.491Z,28.42
2018-08-12T13:31:54.644Z,28.78
2018-08-12T13:34:24.995Z,28.64
2018-08-12T13:36:55.250Z,28.84
2018-08-12T13:39:25.134Z,28.71
2018-08-12T13:41:55.509Z,28.62
2018-08-12T13:44:25.661Z,28.56
2018-08-12T13:46:55.906Z,28.85
2018-08-12T13:49:28.043Z,28.68
2018-08-12T13:51:58.391Z,28.58
2018-08-12T13:54:30.074Z,28.76
2018-08-12T13:57:00.276Z,29.04
2018-08-12T13:59:31.819Z,29.24
2018-08-12T14:02:02.029Z,29.38
2018-08-12T14:04:32.255Z,29.23
2018-08-12T14:07:02.416Z,29.35
2018-08-12T14:09:32.335Z,29.23
2018-08-12T14:12:02.263Z,29.41
2018-08-12T14:14:32.274Z,29.34
2018-08-12T14:17:02.305Z,29.18
2018-08-12T14:19:32.415Z,29.60
2018-08-12T14:22:02.266Z,29.64
2018-08-12T14:24:32.165Z,29.18
2018-08-12T14:27:02.095Z,29.08
2018-08-12T14:29:32.239Z,29.53
2018-08-12T14:32:02.334Z,29.44
2018-08-12T14:34:32.814Z,29.02
2018-08-12T14:37:02.997Z,29.05
2018-08-12T14:39:54.938Z,29.43
2018-08-12T14:42:27.141Z,29.15
2018-08-12T14:44:57.063Z,29.21
2018-08-12T14:47:28.403Z,29.24
2018-08-12T14:49:59.036Z,29.06
2018-08-12T14:52:30.087Z,29.04
2018-08-12T14:55:01.607Z,29.08
2018-08-12T14:57:32.168Z,28.96
2018-08-12T15:00:03.669Z,29.00
2018-08-12T15:02:34.848Z,28.93
2018-08-12T15:05:05.533Z,29.02
2018-08-12T15:07:37.928Z,28.95
2018-08-12T15:10:10.006Z,28.83
2018-08-12T15:12:43.542Z,28.70
2018-08-12T15:15:17.221Z,28.66
2018-08-12T15:17:52.284Z,28.79
2018-08-12T15:20:47.950Z,28.70
2018-08-12T15:23:18.015Z,28.92
2018-08-12T15:25:48.054Z,28.93
2018-08-12T15:28:18.043Z,28.94
2018-08-12T15:30:48.383Z,29.10
2018-08-12T15:33:19.301Z,28.93
2018-08-12T15:35:49.515Z,28.96
2018-08-12T15:38:19.390Z,28.92
2018-08-12T15:40:49.662Z,28.80
2018-08-12T15:43:19.745Z,28.96
2018-08-12T15:45:49.953Z,28.85
2018-08-12T15:48:19.877Z,28.75
2018-08-12T15:50:49.968Z,28.77
2018-08-12T15:53:19.810Z,28.78
2018-08-12T15:55:49.834Z,28.71
2018-08-12T15:58:19.790Z,29.12
2018-08-12T16:00:50.281Z,29.26
2018-08-12T16:03:20.151Z,29.06
2018-08-12T16:05:53.572Z,29.05
2018-08-12T16:08:23.526Z,28.85
2018-08-12T16:10:53.827Z,29.03
2018-08-12T16:13:24.472Z,29.20
2018-08-12T16:15:54.388Z,29.15
2018-08-12T16:18:24.549Z,29.04
2018-08-12T16:20:54.398Z,29.11
2018-08-12T16:23:24.226Z,28.87
2018-08-12T16:25:54.818Z,29.14
2018-08-12T16:28:25.086Z,29.03
2018-08-12T16:30:55.733Z,29.03
2018-08-12T16:33:27.961Z,28.98
2018-08-12T16:36:16.291Z,29.15
2018-08-12T16:38:46.225Z,29.16
2018-08-12T16:41:18.441Z,29.07
2018-08-12T16:43:49.473Z,29.23
2018-08-12T16:46:34.196Z,29.19
2018-08-12T16:49:04.744Z,29.17
2018-08-12T16:51:35.573Z,29.24
2018-08-12T17:00:26.125Z,29.06
2018-08-12T17:02:56.755Z,29.22
2018-08-12T17:05:26.987Z,29.14
2018-08-12T17:08:04.132Z,28.95
2018-08-12T17:10:34.898Z,29.08
2018-08-12T17:13:06.408Z,29.08
2018-08-12T17:39:47.704Z,28.66
2018-08-12T17:42:18.717Z,28.45
2018-08-12T17:44:48.910Z,28.45
2018-08-12T17:47:18.899Z,28.28
2018-08-12T17:49:48.872Z,28.34
2018-08-12T17:52:19.009Z,28.36
2018-08-12T17:54:49.216Z,28.30
2018-08-12T17:57:23.662Z,28.31
2018-08-12T18:03:04.333Z,28.29
2018-08-12T18:05:52.644Z,28.09
2018-08-12T18:14:16.995Z,28.00
2018-08-12T18:16:52.606Z,27.98
2018-08-12T18:19:24.159Z,28.08
2018-08-12T18:28:05.328Z,28.08
2018-08-12T18:30:36.021Z,28.06
2018-08-12T18:33:08.697Z,27.95
2018-08-12T18:35:39.846Z,27.63
2018-08-12T18:44:31.543Z,27.74
2018-08-12T18:50:18.450Z,27.57
2018-08-12T18:52:55.406Z,27.59
2018-08-12T18:58:35.828Z,27.40
2018-08-12T19:07:48.974Z,26.30
2018-08-12T19:10:20.659Z,26.37
2018-08-12T19:12:52.957Z,26.45
2018-08-12T19:15:23.215Z,26.33
2018-08-12T19:21:03.571Z,25.86
2018-08-12T19:23:34.177Z,25.71
2018-08-12T19:26:11.316Z,25.35
2018-08-12T19:31:53.665Z,24.84
2018-08-12T19:34:24.642Z,25.20
2018-08-12T19:36:54.959Z,25.31
2018-08-12T19:39:25.338Z,25.61
2018-08-12T19:44:46.056Z,25.00
2018-08-12T19:47:16.539Z,24.61
2018-08-12T19:49:47.498Z,24.54
2018-08-12T19:52:17.556Z,24.62
2018-08-12T19:55:06.917Z,24.68
2018-08-12T19:57:37.415Z,25.20
2018-08-12T20:00:11.683Z,25.30
2018-08-12T20:02:42.539Z,25.05
2018-08-12T20:05:13.181Z,24.93
2018-08-12T20:07:43.683Z,24.81
2018-08-12T20:10:16.013Z,23.77
2018-08-12T20:12:46.502Z,23.68
2018-08-12T20:15:16.632Z,23.57
2018-08-12T20:17:46.889Z,23.88
2018-08-12T20:20:23.923Z,23.65
2018-08-12T20:26:04.623Z,24.38
2018-08-12T20:28:47.395Z,24.55
2018-08-12T20:44:04.469Z,22.90
2018-08-12T20:59:30.671Z,22.71
2018-08-12T21:14:42.982Z,21.98
2018-08-12T21:17:24.267Z,22.46
2018-08-12T21:23:16.336Z,23.17
2018-08-12T21:38:27.751Z,21.97
2018-08-12T21:44:07.979Z,22.38
2018-08-12T21:46:39.937Z,22.42
2018-08-12T22:14:01.105Z,22.26
2018-08-12T22:16:43.552Z,21.58
2018-08-12T22:22:24.702Z,20.84
2018-08-12T22:25:23.245Z,20.77
2018-08-12T22:27:53.517Z,20.95
2018-08-12T22:36:38.025Z,20.94
2018-08-12T22:39:10.016Z,20.91
2018-08-12T22:41:40.077Z,21.32
2018-08-12T22:44:10.005Z,21.21
2018-08-12T22:46:41.278Z,21.62
2018-08-12T22:49:11.444Z,21.61
2018-08-12T22:51:41.583Z,20.88
2018-08-12T22:57:44.995Z,21.47
2018-08-12T23:00:19.800Z,21.52
2018-08-12T23:02:50.841Z,20.43
2018-08-12T23:08:31.739Z,19.70
2018-08-12T23:14:14.438Z,19.95
2018-08-12T23:16:58.183Z,20.16
2018-08-12T23:19:28.491Z,20.10
2018-08-12T23:22:16.299Z,20.40
2018-08-12T23:24:46.421Z,20.76
2018-08-12T23:27:23.128Z,20.32
2018-08-12T23:29:53.242Z,19.39
2018-08-12T23:32:23.244Z,19.94
2018-08-12T23:34:53.257Z,20.57
2018-08-12T23:37:23.195Z,20.94
2018-08-12T23:39:53.371Z,19.90
2018-08-12T23:42:23.406Z,19.15
2018-08-12T23:44:53.422Z,18.95
2018-08-12T23:47:33.580Z,19.41
2018-08-12T23:52:58.584Z,20.47
2018-08-12T23:55:28.553Z,20.53
2018-08-12T23:57:58.535Z,19.97
